createdAt,value
2019-03-11T00:00:32.770Z,98379.72
2019-03-11T00:03:04.367Z,98379.98
2019-03-11T00:05:38.992Z,98380.94
2019-03-11T00:08:12.129Z,98380.47
2019-03-11T00:10:44.710Z,98377.36
2019-03-11T00:13:16.283Z,98385.23
2019-03-11T00:15:49.513Z,98392.03
2019-03-11T00:18:21.083Z,98396.09
2019-03-11T00:20:53.668Z,98390.66
2019-03-11T00:23:25.294Z,98394.16
2019-03-11T00:26:01.647Z,98389.67
2019-03-11T00:28:34.834Z,98393.65
2019-03-11T00:31:06.389Z,98391.52
2019-03-11T00:33:38.072Z,98387.59
2019-03-11T00:36:16.087Z,98384.41
2019-03-11T00:38:50.553Z,98380.36
2019-03-11T00:41:20.955Z,98384.49
2019-03-11T00:43:52.522Z,98382.60
2019-03-11T00:46:30.659Z,98387.20
2019-03-11T00:49:02.301Z,98382.37
2019-03-11T00:51:36.184Z,98385.31
2019-03-11T00:54:09.099Z,98375.08
2019-03-11T00:56:42.339Z,98376.06
2019-03-11T00:59:16.137Z,98378.89
2019-03-11T01:01:47.702Z,98374.41
2019-03-11T01:04:22.010Z,98373.78
2019-03-11T01:06:53.569Z,98380.66
2019-03-11T01:09:25.103Z,98373.19
2019-03-11T01:11:58.853Z,98376.67
2019-03-11T01:14:30.398Z,98378.59
2019-03-11T01:17:03.658Z,98370.42
2019-03-11T01:19:35.234Z,98372.13
2019-03-11T01:22:06.799Z,98368.15
2019-03-11T01:24:38.387Z,98357.18
2019-03-11T01:27:11.598Z,98354.50
2019-03-11T01:29:43.171Z,98357.72
2019-03-11T01:32:16.809Z,98351.75
2019-03-11T01:34:48.394Z,98359.00
2019-03-11T01:37:19.941Z,98357.41
2019-03-11T01:39:51.532Z,98358.55
2019-03-11T01:42:25.198Z,98350.09
2019-03-11T01:44:57.762Z,98346.66
2019-03-11T01:47:34.413Z,98328.66
2019-03-11T01:50:07.755Z,98333.17
2019-03-11T01:52:47.795Z,98322.92
2019-03-11T01:55:19.374Z,98323.23
2019-03-11T01:57:50.912Z,98321.58
2019-03-11T02:00:26.569Z,98315.72
2019-03-11T02:02:58.047Z,98309.29
2019-03-11T02:05:29.687Z,98303.42
2019-03-11T02:08:01.260Z,98299.61
2019-03-11T02:10:36.521Z,98296.81
2019-03-11T02:13:11.404Z,98290.33
2019-03-11T02:15:43.100Z,98291.16
2019-03-11T02:18:16.417Z,98293.84
2019-03-11T02:20:47.909Z,98290.10
2019-03-11T02:23:19.477Z,98291.38
2019-03-11T02:25:51.029Z,98288.00
2019-03-11T02:28:22.594Z,98281.55
2019-03-11T02:30:54.174Z,98274.45
2019-03-11T02:33:25.735Z,98263.87
2019-03-11T02:36:07.796Z,98264.23
2019-03-11T02:38:42.397Z,98257.55
2019-03-11T02:41:15.643Z,98250.45
2019-03-11T02:43:47.180Z,98246.13
2019-03-11T02:46:21.865Z,98240.34
2019-03-11T02:48:54.881Z,98235.00
2019-03-11T02:51:31.359Z,98239.98
2019-03-11T02:54:09.215Z,98235.17
2019-03-11T02:56:44.057Z,98223.44
2019-03-11T02:59:21.539Z,98217.50
2019-03-11T03:02:21.084Z,98202.19
2019-03-11T03:05:04.260Z,98203.69
2019-03-11T03:07:38.796Z,98201.13
2019-03-11T03:10:10.764Z,98196.30
2019-03-11T03:12:42.298Z,98183.91
2019-03-11T03:15:16.750Z,98176.89
2019-03-11T03:17:48.295Z,98171.11
2019-03-11T03:20:20.151Z,98172.33
2019-03-11T03:22:51.722Z,98167.02
2019-03-11T03:25:33.947Z,98170.44
2019-03-11T03:27:56.662Z,98162.88
2019-03-11T03:30:28.340Z,98163.81
2019-03-11T03:33:00.178Z,98161.50
2019-03-11T03:35:31.730Z,98155.03
2019-03-11T03:38:03.539Z,98161.50
2019-03-11T03:40:35.396Z,98159.06
2019-03-11T03:43:07.569Z,98159.30
2019-03-11T03:45:44.082Z,98158.16
2019-03-11T03:48:16.251Z,98174.62
2019-03-11T03:50:48.070Z,98190.45
2019-03-11T03:53:19.633Z,98175.38
2019-03-11T03:55:53.006Z,98167.28
2019-03-11T03:58:24.534Z,98176.38
2019-03-11T04:00:56.397Z,98174.38
2019-03-11T04:03:27.918Z,98178.10
2019-03-11T04:05:59.789Z,98179.64
2019-03-11T04:08:31.322Z,98172.72
2019-03-11T04:11:02.922Z,98177.67
2019-03-11T04:13:34.419Z,98171.17
2019-03-11T04:16:05.969Z,98165.39
2019-03-11T04:18:57.419Z,98171.48
2019-03-11T04:21:28.941Z,98154.05
2019-03-11T04:24:01.879Z,98155.42
2019-03-11T04:26:33.440Z,98160.06
2019-03-11T04:29:05.265Z,98146.12
2019-03-11T04:31:36.837Z,98137.40
2019-03-11T04:34:08.415Z,98131.83
2019-03-11T04:36:39.960Z,98143.80
2019-03-11T04:39:11.786Z,98136.70
2019-03-11T04:41:43.657Z,98122.98
2019-03-11T04:44:15.233Z,98121.55
2019-03-11T04:46:46.786Z,98113.83
2019-03-11T04:49:18.389Z,98100.69
2019-03-11T04:51:49.934Z,98104.88
2019-03-11T04:54:21.479Z,98095.61
2019-03-11T04:56:53.027Z,98091.93
2019-03-11T04:59:24.625Z,98082.13
2019-03-11T05:01:56.210Z,98083.48
2019-03-11T05:04:27.931Z,98087.91
2019-03-11T05:06:59.478Z,98081.75
2019-03-11T05:09:31.150Z,98066.67
2019-03-11T05:12:02.699Z,98060.15
2019-03-11T05:14:34.296Z,98070.11
2019-03-11T05:17:08.877Z,98065.68
2019-03-11T05:19:40.731Z,98068.19
2019-03-11T05:22:12.279Z,98066.83
2019-03-11T05:24:43.840Z,98062.19
2019-03-11T05:27:15.428Z,98062.78
2019-03-11T05:29:46.959Z,98065.22
2019-03-11T05:32:18.786Z,98060.20
2019-03-11T05:34:50.980Z,98061.13
2019-03-11T05:37:22.474Z,98061.81
2019-03-11T05:39:54.346Z,98059.69
2019-03-11T05:42:27.936Z,98056.11
2019-03-11T05:44:59.521Z,98056.19
2019-03-11T05:47:31.350Z,98048.58
2019-03-11T05:50:03.409Z,98042.47
2019-03-11T05:52:35.214Z,98039.30
2019-03-11T05:55:07.742Z,98048.40
2019-03-11T05:57:39.560Z,98051.81
2019-03-11T06:00:19.658Z,98047.27
2019-03-11T06:02:51.228Z,98045.50
2019-03-11T06:05:23.098Z,98043.38
2019-03-11T06:07:57.554Z,98032.13
2019-03-11T06:10:29.400Z,98047.46
2019-03-11T06:13:05.352Z,98050.59
2019-03-11T06:15:40.383Z,98070.05
2019-03-11T06:18:12.234Z,98064.72
2019-03-11T06:20:53.588Z,98068.20
2019-03-11T06:23:25.158Z,98076.59
2019-03-11T06:25:58.384Z,98071.54
2019-03-11T06:28:34.859Z,98060.27
2019-03-11T06:31:09.422Z,98070.88
2019-03-11T06:33:41.012Z,98073.06
2019-03-11T06:36:15.775Z,98085.30
2019-03-11T06:38:52.195Z,98087.70
2019-03-11T06:41:24.006Z,98083.03
2019-03-11T06:43:56.004Z,98096.13
2019-03-11T06:46:27.830Z,98109.47
2019-03-11T06:49:08.310Z,98114.03
2019-03-11T06:51:41.470Z,98118.73
2019-03-11T06:54:17.817Z,98114.61
2019-03-11T06:56:50.497Z,98126.66
2019-03-11T06:59:22.078Z,98127.56
2019-03-11T07:01:53.787Z,98130.86
2019-03-11T07:04:25.345Z,98184.48
2019-03-11T07:06:56.901Z,98209.64
2019-03-11T07:09:30.168Z,98221.54
2019-03-11T07:12:01.757Z,98247.67
2019-03-11T07:14:35.751Z,98248.44
2019-03-11T07:17:09.057Z,98260.05
2019-03-11T07:19:42.181Z,98247.58
2019-03-11T07:22:24.288Z,98248.02
2019-03-11T07:25:08.089Z,98232.35
2019-03-11T07:27:39.919Z,98240.77
2019-03-11T07:30:12.983Z,98249.27
2019-03-11T07:32:44.800Z,98245.52
2019-03-11T07:35:16.623Z,98252.78
2019-03-11T07:37:48.442Z,98249.56
2019-03-11T07:40:29.830Z,98251.98
2019-03-11T07:42:57.677Z,98262.27
2019-03-11T07:45:31.702Z,98261.61
2019-03-11T07:48:06.391Z,98261.20
2019-03-11T07:50:38.203Z,98241.42
2019-03-11T07:53:10.044Z,98245.11
2019-03-11T07:55:41.842Z,98250.67
2019-03-11T07:58:20.766Z,98258.07
2019-03-11T08:00:54.137Z,98258.34
2019-03-11T08:03:27.169Z,98263.09
2019-03-11T08:06:01.064Z,98252.38
2019-03-11T08:08:32.900Z,98258.73
2019-03-11T08:11:09.113Z,98257.91
2019-03-11T08:13:43.989Z,98265.36
2019-03-11T08:16:15.795Z,98267.38
2019-03-11T08:18:48.943Z,98280.58
2019-03-11T08:21:22.104Z,98281.19
2019-03-11T08:23:55.462Z,98276.53
2019-03-11T08:26:28.981Z,98284.45
2019-03-11T08:29:03.444Z,98287.03
2019-03-11T08:31:35.275Z,98288.94
2019-03-11T08:34:07.111Z,98298.88
2019-03-11T08:36:41.763Z,98300.94
2019-03-11T08:39:13.600Z,98305.78
2019-03-11T08:41:45.207Z,98307.93
2019-03-11T08:44:16.740Z,98294.79
2019-03-11T08:46:48.289Z,98307.73
2019-03-11T08:49:20.140Z,98305.06
2019-03-11T08:51:51.725Z,98314.75
2019-03-11T08:54:23.270Z,98305.54
2019-03-11T08:56:55.128Z,98308.98
2019-03-11T08:59:26.970Z,98311.44
2019-03-11T09:02:04.016Z,98332.68
2019-03-11T09:04:35.597Z,98331.47
2019-03-11T09:07:09.847Z,98326.38
2019-03-11T09:09:41.412Z,98320.62
2019-03-11T09:12:13.216Z,98324.50
2019-03-11T09:14:44.903Z,98326.22
2019-03-11T09:17:17.562Z,98327.94
2019-03-11T09:19:49.386Z,98325.22
2019-03-11T09:22:25.428Z,98330.45
2019-03-11T09:24:57.016Z,98340.62
2019-03-11T09:27:32.447Z,98342.08
2019-03-11T09:30:07.496Z,98333.91
2019-03-11T09:32:39.416Z,98339.20
2019-03-11T09:35:11.164Z,98331.75
2019-03-11T09:37:45.042Z,98322.61
2019-03-11T09:40:19.025Z,98325.97
2019-03-11T09:42:52.242Z,98325.06
2019-03-11T09:45:24.389Z,98324.47
2019-03-11T09:47:56.158Z,98330.72
2019-03-11T09:50:27.703Z,98325.84
2019-03-11T09:52:59.257Z,98328.98
2019-03-11T09:55:30.844Z,98329.97
2019-03-11T09:58:02.442Z,98331.33
2019-03-11T10:00:34.055Z,98334.13
2019-03-11T10:03:10.728Z,98334.25
2019-03-11T10:05:43.525Z,98332.72
2019-03-11T10:08:15.239Z,98339.00
2019-03-11T10:10:46.917Z,98343.21
2019-03-11T10:13:21.494Z,98333.89
2019-03-11T10:15:54.193Z,98335.08
2019-03-11T10:18:29.401Z,98326.43
2019-03-11T10:21:02.680Z,98320.80
2019-03-11T10:23:34.250Z,98320.09
2019-03-11T10:26:08.823Z,98323.42
2019-03-11T10:28:46.246Z,98325.38
2019-03-11T10:31:21.202Z,98327.09
2019-03-11T10:33:52.755Z,98334.24
2019-03-11T10:36:27.890Z,98343.45
2019-03-11T10:38:59.446Z,98340.72
2019-03-11T10:41:37.526Z,98332.51
2019-03-11T10:44:09.833Z,98337.06
2019-03-11T10:46:44.997Z,98333.31
2019-03-11T10:49:17.670Z,98339.34
2019-03-11T10:51:52.344Z,98338.74
2019-03-11T10:54:24.074Z,98360.16
2019-03-11T10:56:58.627Z,98358.92
2019-03-11T10:59:31.682Z,98349.40
2019-03-11T11:02:03.248Z,98368.00
2019-03-11T11:04:34.849Z,98386.48
2019-03-11T11:07:06.511Z,98367.68
2019-03-11T11:09:42.976Z,98370.84
2019-03-11T11:12:15.704Z,98361.52
2019-03-11T11:14:47.235Z,98360.96
2019-03-11T11:17:25.893Z,98360.59
2019-03-11T11:20:03.554Z,98372.13
2019-03-11T11:22:34.554Z,98375.00
2019-03-11T11:25:07.228Z,98384.49
2019-03-11T11:27:38.894Z,98377.53
2019-03-11T11:30:18.067Z,98383.22
2019-03-11T11:32:49.775Z,98379.57
2019-03-11T11:35:21.636Z,98381.34
2019-03-11T11:37:56.231Z,98384.18
2019-03-11T11:40:30.153Z,98375.29
2019-03-11T11:43:03.029Z,98390.26
2019-03-11T11:45:34.819Z,98390.65
2019-03-11T11:48:09.406Z,98401.02
2019-03-11T11:50:43.322Z,98412.77
2019-03-11T11:53:17.379Z,98414.88
2019-03-11T11:55:57.374Z,98401.36
2019-03-11T11:58:27.887Z,98414.77
2019-03-11T12:00:59.441Z,98412.33
2019-03-11T12:03:32.534Z,98418.92
2019-03-11T12:06:06.696Z,98411.81
2019-03-11T12:08:41.056Z,98416.25
2019-03-11T12:11:12.635Z,98407.19
2019-03-11T12:13:44.175Z,98411.31
2019-03-11T12:16:15.728Z,98405.05
2019-03-11T12:18:49.153Z,98398.81
2019-03-11T12:21:23.484Z,98406.30
2019-03-11T12:23:55.086Z,98419.16
2019-03-11T12:26:28.293Z,98416.02
2019-03-11T12:29:04.227Z,98410.97
2019-03-11T12:31:37.855Z,98397.84
2019-03-11T12:34:14.365Z,98399.14
2019-03-11T12:36:45.937Z,98405.28
2019-03-11T12:39:21.387Z,98413.63
2019-03-11T12:41:54.567Z,98417.23
2019-03-11T12:44:28.863Z,98419.16
2019-03-11T12:47:00.386Z,98424.04
2019-03-11T12:49:34.045Z,98422.27
2019-03-11T12:52:05.622Z,98415.08
2019-03-11T12:54:37.152Z,98423.48
2019-03-11T12:57:18.484Z,98407.95
2019-03-11T12:59:51.154Z,98410.23
2019-03-11T13:02:25.952Z,98405.44
2019-03-11T13:05:01.237Z,98403.36
2019-03-11T13:07:34.401Z,98400.60
2019-03-11T13:10:08.502Z,98407.73
2019-03-11T13:12:42.896Z,98417.70
2019-03-11T13:15:17.910Z,98414.31
2019-03-11T13:17:52.710Z,98410.03
2019-03-11T13:20:35.399Z,98428.55
2019-03-11T13:23:10.001Z,98433.77
2019-03-11T13:25:45.939Z,98444.33
2019-03-11T13:28:23.368Z,98444.41
2019-03-11T13:30:58.103Z,98460.86
2019-03-11T13:33:29.715Z,98451.98
2019-03-11T13:36:01.397Z,98456.17
2019-03-11T13:38:34.493Z,98456.17
2019-03-11T13:41:07.676Z,98461.67
2019-03-11T13:43:53.034Z,98469.00
2019-03-11T13:46:21.389Z,98462.91
2019-03-11T13:48:58.288Z,98465.98
2019-03-11T13:51:30.678Z,98457.30
2019-03-11T13:54:05.531Z,98466.39
2019-03-11T13:56:37.225Z,98471.98
2019-03-11T13:59:08.808Z,98476.60
2019-03-11T14:01:41.945Z,98479.53
2019-03-11T14:04:13.546Z,98479.58
2019-03-11T14:06:48.746Z,98473.77
2019-03-11T14:09:22.411Z,98479.14
2019-03-11T14:11:54.249Z,98472.06
2019-03-11T14:14:30.529Z,98474.58
2019-03-11T14:17:02.073Z,98474.28
2019-03-11T14:19:37.114Z,98480.49
2019-03-11T14:22:08.799Z,98486.27
2019-03-11T14:24:43.299Z,98493.73
2019-03-11T14:27:16.245Z,98498.69
2019-03-11T14:29:47.791Z,98497.86
2019-03-11T14:32:24.551Z,98500.95
2019-03-11T14:34:57.471Z,98504.81
2019-03-11T14:37:34.243Z,98504.45
2019-03-11T14:40:06.648Z,98502.34
2019-03-11T14:42:38.304Z,98499.14
2019-03-11T14:45:12.784Z,98524.47
2019-03-11T14:47:44.559Z,98526.23
2019-03-11T14:50:18.944Z,98558.09
2019-03-11T14:52:53.547Z,98541.31
2019-03-11T14:55:25.625Z,98555.61
2019-03-11T14:58:00.946Z,98568.67
2019-03-11T15:00:35.509Z,98548.56
2019-03-11T15:03:07.129Z,98538.88
2019-03-11T15:05:43.333Z,98538.57
2019-03-11T15:08:15.093Z,98539.43
2019-03-11T15:10:46.630Z,98543.53
2019-03-11T15:13:18.203Z,98540.26
2019-03-11T15:15:55.088Z,98545.09
2019-03-11T15:18:26.705Z,98538.09
2019-03-11T15:20:58.318Z,98532.66
2019-03-11T15:23:32.997Z,98529.48
2019-03-11T15:26:05.682Z,98527.98
2019-03-11T15:28:38.920Z,98527.23
2019-03-11T15:31:12.932Z,98525.42
2019-03-11T15:33:46.330Z,98532.34
2019-03-11T15:36:17.899Z,98525.45
2019-03-11T15:38:49.611Z,98538.94
2019-03-11T15:41:21.255Z,98548.97
2019-03-11T15:43:53.034Z,98544.17
2019-03-11T15:46:24.589Z,98552.14
2019-03-11T15:48:56.198Z,98559.70
2019-03-11T15:51:36.542Z,98549.62
2019-03-11T15:54:03.933Z,98566.23
2019-03-11T15:56:35.525Z,98597.22
2019-03-11T15:59:08.726Z,98603.50
2019-03-11T16:01:40.312Z,98602.48
2019-03-11T16:04:11.918Z,98596.67
2019-03-11T16:06:45.715Z,98581.86
2019-03-11T16:09:19.683Z,98578.86
2019-03-11T16:11:50.729Z,98577.95
2019-03-11T16:14:22.399Z,98563.83
2019-03-11T16:16:54.062Z,98574.99
2019-03-11T16:19:25.746Z,98582.31
2019-03-11T16:21:57.397Z,98587.27
2019-03-11T16:24:31.025Z,98593.55
2019-03-11T16:27:02.280Z,98590.80
2019-03-11T16:29:38.513Z,98584.00
2019-03-11T16:32:12.036Z,98580.39
2019-03-11T16:34:44.609Z,98579.02
2019-03-11T16:37:16.469Z,98575.06
2019-03-11T16:39:48.350Z,98578.49
2019-03-11T16:42:23.042Z,98587.11
2019-03-11T16:44:54.643Z,98587.86
2019-03-11T16:47:27.811Z,98598.27
2019-03-11T16:50:02.834Z,98598.41
2019-03-11T16:52:34.432Z,98603.14
2019-03-11T16:55:09.304Z,98610.38
2019-03-11T16:57:40.863Z,98611.72
2019-03-11T17:00:22.706Z,98621.80
2019-03-11T17:02:54.360Z,98616.91
2019-03-11T17:05:25.934Z,98622.02
2019-03-11T17:07:57.480Z,98627.81
2019-03-11T17:10:32.535Z,98621.55
2019-03-11T17:13:04.259Z,98631.92
2019-03-11T17:15:35.847Z,98638.83
2019-03-11T17:18:07.463Z,98638.28
2019-03-11T17:20:39.016Z,98645.84
2019-03-11T17:23:10.609Z,98646.61
2019-03-11T17:25:42.220Z,98651.23
2019-03-11T17:28:13.812Z,98652.97
2019-03-11T17:30:45.480Z,98655.27
2019-03-11T17:33:17.054Z,98663.17
2019-03-11T17:35:48.656Z,98653.57
2019-03-11T17:38:20.321Z,98655.90
2019-03-11T17:40:51.982Z,98664.70
2019-03-11T17:43:23.586Z,98667.36
2019-03-11T17:45:55.147Z,98667.00
2019-03-11T17:48:26.725Z,98669.81
2019-03-11T17:50:58.320Z,98675.80
2019-03-11T17:53:29.880Z,98689.05
2019-03-11T17:56:01.641Z,98691.58
2019-03-11T17:58:33.296Z,98689.39
2019-03-11T18:01:05.312Z,98700.45
2019-03-11T18:03:37.013Z,98700.38
2019-03-11T18:06:11.899Z,98696.89
2019-03-11T18:08:42.925Z,98702.09
2019-03-11T18:11:14.502Z,98705.28
2019-03-11T18:13:46.077Z,98706.31
2019-03-11T18:16:17.844Z,98711.63
2019-03-11T18:18:51.223Z,98698.44
2019-03-11T18:21:23.326Z,98697.50
2019-03-11T18:23:54.901Z,98702.42
2019-03-11T18:26:29.200Z,98697.77
2019-03-11T18:29:09.787Z,98699.53
2019-03-11T18:31:44.804Z,98708.53
2019-03-11T18:34:16.395Z,98706.08
2019-03-11T18:36:48.013Z,98707.38
2019-03-11T18:39:19.633Z,98710.99
2019-03-11T18:41:51.183Z,98718.90
2019-03-11T18:44:25.364Z,98722.02
2019-03-11T18:46:56.970Z,98730.36
2019-03-11T18:49:28.598Z,98733.09
2019-03-11T18:52:00.178Z,98743.13
2019-03-11T18:54:31.815Z,98755.88
2019-03-11T18:57:03.417Z,98760.17
2019-03-11T18:59:36.148Z,98756.28
2019-03-11T19:02:08.898Z,98765.16
2019-03-11T19:04:40.546Z,98767.88
2019-03-11T19:07:12.158Z,98767.48
2019-03-11T19:09:43.731Z,98768.27
2019-03-11T19:12:15.548Z,98772.48
2019-03-11T19:14:47.120Z,98777.78
2019-03-11T19:17:18.752Z,98773.33
2019-03-11T19:19:50.569Z,98782.41
2019-03-11T19:22:22.199Z,98787.25
2019-03-11T19:24:53.818Z,98776.42
2019-03-11T19:27:27.752Z,98783.70
2019-03-11T19:29:59.353Z,98785.20
2019-03-11T19:32:38.180Z,98792.38
2019-03-11T19:35:11.116Z,98790.95
2019-03-11T19:37:42.707Z,98788.68
2019-03-11T19:40:19.813Z,98792.25
2019-03-11T19:42:54.059Z,98798.28
2019-03-11T19:45:25.744Z,98804.95
2019-03-11T19:47:57.337Z,98792.42
2019-03-11T19:50:28.901Z,98797.23
2019-03-11T19:53:00.500Z,98796.01
2019-03-11T19:55:32.137Z,98802.30
2019-03-11T19:58:03.724Z,98808.25
2019-03-11T20:00:37.938Z,98798.91
2019-03-11T20:03:22.677Z,98810.33
2019-03-11T20:05:45.472Z,98811.80
2019-03-11T20:08:20.014Z,98807.15
2019-03-11T20:10:53.343Z,98812.37
2019-03-11T20:13:24.911Z,98812.34
2019-03-11T20:15:56.490Z,98827.51
2019-03-11T20:18:33.521Z,98821.03
2019-03-11T20:21:08.680Z,98822.27
2019-03-11T20:23:40.391Z,98824.27
2019-03-11T20:26:12.173Z,98825.23
2019-03-11T20:28:49.341Z,98826.16
2019-03-11T20:31:21.050Z,98822.82
2019-03-11T20:33:54.276Z,98829.11
2019-03-11T20:36:25.929Z,98825.23
2019-03-11T20:39:00.295Z,98827.75
2019-03-11T20:41:35.494Z,98837.69
2019-03-11T20:44:07.217Z,98840.03
2019-03-11T20:46:41.118Z,98834.27
2019-03-11T20:49:21.991Z,98848.33
2019-03-11T20:51:53.542Z,98848.98
2019-03-11T20:54:25.195Z,98847.80
2019-03-11T20:57:00.927Z,98851.97
2019-03-11T20:59:31.560Z,98857.92
2019-03-11T21:02:03.130Z,98865.17
2019-03-11T21:04:34.745Z,98858.70
2019-03-11T21:07:06.344Z,98858.57
2019-03-11T21:09:40.034Z,98865.52
2019-03-11T21:12:11.550Z,98863.50
2019-03-11T21:14:45.927Z,98870.45
2019-03-11T21:17:25.599Z,98874.40
2019-03-11T21:19:54.021Z,98872.88
2019-03-11T21:22:25.632Z,98878.81
2019-03-11T21:24:59.846Z,98886.95
2019-03-11T21:27:33.494Z,98887.70
2019-03-11T21:30:05.597Z,98884.77
2019-03-11T21:32:40.905Z,98894.73
2019-03-11T21:35:15.773Z,98906.08
2019-03-11T21:37:51.337Z,98912.88
2019-03-11T21:40:27.322Z,98908.98
2019-03-11T21:42:59.011Z,98909.38
2019-03-11T21:45:34.391Z,98901.20
2019-03-11T21:48:03.933Z,98912.56
2019-03-11T21:50:35.615Z,98911.52
2019-03-11T21:53:11.722Z,98914.11
2019-03-11T21:55:47.371Z,98921.82
2019-03-11T21:58:19.001Z,98918.86
2019-03-11T22:00:50.576Z,98920.44
2019-03-11T22:03:22.132Z,98931.70
2019-03-11T22:05:56.061Z,98938.70
2019-03-11T22:08:28.819Z,98927.99
2019-03-11T22:11:01.493Z,98935.70
2019-03-11T22:13:33.093Z,98930.52
2019-03-11T22:16:05.817Z,98927.37
2019-03-11T22:18:42.869Z,98923.48
2019-03-11T22:21:17.754Z,98929.51
2019-03-11T22:23:52.389Z,98927.10
2019-03-11T22:26:23.951Z,98928.34
2019-03-11T22:28:55.528Z,98929.35
2019-03-11T22:31:27.115Z,98938.05
2019-03-11T22:34:00.854Z,98932.16
2019-03-11T22:36:32.413Z,98932.22
2019-03-11T22:39:06.942Z,98937.93
2019-03-11T22:41:38.506Z,98938.36
2019-03-11T22:44:10.042Z,98941.64
2019-03-11T22:46:41.624Z,98942.59
2019-03-11T22:49:15.953Z,98948.83
2019-03-11T22:51:47.534Z,98947.78
2019-03-11T22:54:19.102Z,98953.73
2019-03-11T22:56:57.216Z,98957.13
2019-03-11T22:59:34.913Z,98951.20
2019-03-11T23:02:11.661Z,98951.23
2019-03-11T23:04:43.281Z,98957.50
2019-03-11T23:07:14.868Z,98957.01
2019-03-11T23:09:47.567Z,98961.20
2019-03-11T23:12:21.899Z,98961.81
2019-03-11T23:14:56.348Z,98966.28
2019-03-11T23:17:27.916Z,98965.15
2019-03-11T23:19:59.476Z,98970.17
2019-03-11T23:22:31.056Z,98974.36
2019-03-11T23:25:04.082Z,98976.77
2019-03-11T23:27:35.641Z,98984.20
2019-03-11T23:30:08.942Z,98998.14
2019-03-11T23:32:40.506Z,99005.98
2019-03-11T23:35:16.954Z,99006.17
2019-03-11T23:37:48.537Z,99009.11
2019-03-11T23:40:20.091Z,99020.36
2019-03-11T23:42:54.667Z,99022.53
2019-03-11T23:45:27.840Z,99027.19
2019-03-11T23:47:59.403Z,99026.41
2019-03-11T23:50:33.489Z,99029.12
2019-03-11T23:53:06.962Z,99038.51
2019-03-11T23:55:46.693Z,99037.39
2019-03-11T23:58:19.731Z,99038.63
